Terminal Aerodrome Forecast
Issued by NWS Wilmington, OH

Current Version | Previous Version | Graphics & Text | Print | Product List | Glossary On
Versions: 1 2 3 4 5 6 7 8 9 10 11 12 13 14 15 16 17 18 19 20 21
000
FTUS41 KILN 241100
TAFILN
TAF
KILN 241140Z 2412/2512 28008KT P6SM OVC012
     FM241300 26011KT P6SM SCT012 BKN100
     FM241900 25012G20KT P6SM OVC025
     FM242300 25007KT P6SM BKN035
     FM250600 23005KT P6SM BKN025 OVC250
     FM251000 19006KT 5SM BR OVC012=

USA.gov is the U.S. government's official web portal to all federal, state and local government web resources and services.